createdAt,value
2018-11-22T12:17:04.225Z,97082.00
2018-11-22T12:19:32.544Z,97073.61
2018-11-22T12:22:00.849Z,97056.88
2018-11-22T12:24:29.488Z,97042.45
2018-11-22T12:26:57.805Z,97062.23
2018-11-22T12:29:26.109Z,97058.72
2018-11-22T12:31:54.421Z,97055.17
2018-11-22T12:34:24.525Z,97060.80
2018-11-22T12:37:00.922Z,97056.80
2018-11-22T12:39:29.784Z,97048.23
2018-11-22T12:41:58.104Z,97055.93
2018-11-22T12:44:26.424Z,97052.17
2018-11-22T12:46:54.727Z,97053.17
2018-11-22T12:49:23.052Z,97043.91
2018-11-22T12:51:51.341Z,97045.91
2018-11-22T12:54:19.660Z,97047.51
2018-11-22T12:56:47.968Z,97038.92
2018-11-22T12:59:16.349Z,97030.03
2018-11-22T13:01:44.662Z,97039.39
2018-11-22T13:04:12.994Z,97038.14
2018-11-22T13:06:41.304Z,97054.78
2018-11-22T13:09:09.753Z,97052.98
2018-11-22T13:11:38.077Z,97070.11
2018-11-22T13:14:06.405Z,97060.59
2018-11-22T13:16:34.696Z,97070.61
2018-11-22T13:19:03.034Z,97067.81
2018-11-22T13:21:31.342Z,97059.19
2018-11-22T13:23:59.834Z,97060.20
2018-11-22T13:26:28.140Z,97057.61
2018-11-22T13:28:56.865Z,97068.52
2018-11-22T13:31:25.150Z,97060.22
2018-11-22T13:33:53.701Z,97062.56
2018-11-22T13:36:22.284Z,97053.77
2018-11-22T13:38:50.586Z,97058.47
2018-11-22T13:41:18.906Z,97053.58
2018-11-22T13:43:47.221Z,97053.46
2018-11-22T13:46:15.529Z,97060.49
2018-11-22T13:48:43.840Z,97062.19
2018-11-22T13:51:12.151Z,97057.88
2018-11-22T13:53:40.464Z,97055.16
2018-11-22T13:56:08.776Z,97056.97
2018-11-22T13:58:37.066Z,97062.37
2018-11-22T14:01:05.420Z,97056.39
2018-11-22T14:03:33.706Z,97061.95
2018-11-22T14:06:02.033Z,97055.49
2018-11-22T14:08:30.337Z,97055.39
2018-11-22T14:10:58.763Z,97067.37
2018-11-22T14:13:26.977Z,97064.66
2018-11-22T14:15:55.340Z,97062.38
2018-11-22T14:18:23.652Z,97063.38
2018-11-22T14:20:51.956Z,97064.22
2018-11-22T14:23:20.240Z,97060.71
2018-11-22T14:25:49.164Z,97063.09
2018-11-22T14:28:16.904Z,97060.89
2018-11-22T14:30:45.219Z,97062.80
2018-11-22T14:33:13.579Z,97062.70
2018-11-22T14:35:41.907Z,97059.41
2018-11-22T14:38:10.208Z,97058.44
2018-11-22T14:40:38.512Z,97067.50
2018-11-22T14:43:06.809Z,97066.37
2018-11-22T14:45:35.120Z,97069.95
2018-11-22T14:48:04.219Z,97066.25
2018-11-22T14:50:38.572Z,97074.30
2018-11-22T14:53:09.370Z,97073.52
2018-11-22T14:55:37.864Z,97072.53
2018-11-22T14:58:06.389Z,97075.63
2018-11-22T15:00:34.696Z,97083.67
2018-11-22T15:03:03.042Z,97079.52
2018-11-22T15:05:31.534Z,97083.52
2018-11-22T15:08:00.232Z,97085.88
2018-11-22T15:10:28.532Z,97094.00
2018-11-22T15:12:56.842Z,97096.78
2018-11-22T15:15:26.196Z,97090.27
2018-11-22T15:17:54.500Z,97093.20
2018-11-22T15:20:22.849Z,97094.64
2018-11-22T15:22:52.096Z,97093.74
2018-11-22T15:25:23.794Z,97093.35
2018-11-22T15:27:52.179Z,97089.48
2018-11-22T15:30:25.628Z,97087.74
2018-11-22T15:32:54.024Z,97094.25
2018-11-22T15:35:23.580Z,97084.14
2018-11-22T15:37:52.230Z,97084.56
2018-11-22T15:40:21.815Z,97082.00
2018-11-22T15:42:52.332Z,97082.30
2018-11-22T15:45:21.996Z,97079.22
2018-11-22T15:47:50.297Z,97079.37
2018-11-22T15:50:19.922Z,97088.22
2018-11-22T15:52:48.236Z,97087.15
2018-11-22T15:55:20.960Z,97089.13
2018-11-22T15:57:47.145Z,97093.86
2018-11-22T16:00:18.969Z,97095.05
2018-11-22T16:02:47.889Z,97095.37
2018-11-22T16:05:16.643Z,97104.36
2018-11-22T16:07:44.975Z,97102.89
2018-11-22T16:10:16.561Z,97106.82
2018-11-22T16:12:45.852Z,97109.55
2018-11-22T16:15:15.986Z,97114.25
2018-11-22T16:17:44.320Z,97112.56
2018-11-22T16:20:12.621Z,97114.05
2018-11-22T16:22:41.057Z,97113.92
2018-11-22T16:25:10.710Z,97119.41
2018-11-22T16:27:39.168Z,97108.14
2018-11-22T16:30:13.405Z,97110.73
2018-11-22T16:32:42.722Z,97119.23
2018-11-22T16:35:12.681Z,97120.72
2018-11-22T16:37:41.916Z,97119.02
2018-11-22T16:40:12.490Z,97122.91
2018-11-22T16:42:41.709Z,97119.34
2018-11-22T16:45:17.590Z,97118.07
2018-11-22T16:47:46.248Z,97114.94
2018-11-22T16:50:15.820Z,97115.52
2018-11-22T16:52:43.613Z,97112.83
2018-11-22T16:55:12.376Z,97110.88
2018-11-22T16:57:41.557Z,97108.86
2018-11-22T17:00:14.980Z,97110.13
2018-11-22T17:02:44.086Z,97117.06
2018-11-22T17:05:14.104Z,97121.16
2018-11-22T17:07:44.010Z,97115.55
2018-11-22T17:10:14.244Z,97122.53
2018-11-22T17:12:42.997Z,97116.91
2018-11-22T17:15:13.665Z,97110.80
2018-11-22T17:17:42.123Z,97109.30
2018-11-22T17:20:12.285Z,97110.25
2018-11-22T17:22:41.236Z,97111.02
2018-11-22T17:25:12.713Z,97116.52
2018-11-22T17:27:41.585Z,97107.77
2018-11-22T17:30:13.172Z,97110.51
2018-11-22T17:32:42.158Z,97118.02
2018-11-22T17:35:12.826Z,97114.05
2018-11-22T17:37:41.125Z,97113.41
2018-11-22T17:40:11.873Z,97112.01
2018-11-22T17:42:40.212Z,97118.09
2018-11-22T17:45:10.420Z,97126.88
2018-11-22T17:47:38.936Z,97128.20
2018-11-22T17:50:09.377Z,97131.92
2018-11-22T17:52:37.669Z,97133.06
2018-11-22T17:55:09.960Z,97132.66
2018-11-22T17:57:38.564Z,97128.34
2018-11-22T18:00:16.785Z,97135.02
2018-11-22T18:02:46.297Z,97136.59
2018-11-22T18:05:14.620Z,97138.98
2018-11-22T18:07:42.918Z,97147.77
2018-11-22T18:10:13.477Z,97147.91
2018-11-22T18:12:42.965Z,97148.73
2018-11-22T18:15:12.689Z,97152.38
2018-11-22T18:17:41.017Z,97154.59
2018-11-22T18:20:11.440Z,97149.42
2018-11-22T18:22:39.987Z,97148.59
2018-11-22T18:25:10.181Z,97148.60
2018-11-22T18:27:38.575Z,97151.31
2018-11-22T18:30:10.462Z,97152.98
2018-11-22T18:32:38.777Z,97156.92
2018-11-22T18:35:08.457Z,97150.50
2018-11-22T18:37:36.814Z,97156.20
2018-11-22T18:40:05.654Z,97152.31
2018-11-22T18:42:34.000Z,97149.68
2018-11-22T18:45:02.317Z,97158.98
2018-11-22T18:47:30.620Z,97155.92
2018-11-22T18:49:58.921Z,97157.92
2018-11-22T18:52:27.200Z,97164.13
2018-11-22T18:54:55.499Z,97161.88
2018-11-22T18:57:23.826Z,97155.95
2018-11-22T18:59:52.169Z,97148.43
2018-11-22T19:02:20.473Z,97158.34
2018-11-22T19:04:48.792Z,97147.22
2018-11-22T19:07:17.092Z,97150.87
2018-11-22T19:09:45.424Z,97149.48
2018-11-22T19:12:13.728Z,97152.45
2018-11-22T19:14:42.060Z,97157.59
2018-11-22T19:17:10.368Z,97156.44
2018-11-22T19:19:38.680Z,97159.46
2018-11-22T19:22:07.007Z,97166.37
2018-11-22T19:24:35.328Z,97174.47
2018-11-22T19:27:03.631Z,97172.78
2018-11-22T19:29:32.028Z,97175.89
2018-11-22T19:32:00.362Z,97173.48
2018-11-22T19:34:28.684Z,97172.87
2018-11-22T19:36:56.981Z,97179.38
2018-11-22T19:39:25.329Z,97172.52
2018-11-22T19:41:57.858Z,97171.44
2018-11-22T19:44:33.478Z,97179.61
2018-11-22T19:47:10.841Z,97173.86
2018-11-22T19:49:39.497Z,97179.05
2018-11-22T19:52:07.805Z,97177.80
2018-11-22T19:54:36.137Z,97179.27
2018-11-22T19:57:04.473Z,97172.70
2018-11-22T19:59:32.832Z,97174.36
2018-11-22T20:02:01.134Z,97174.34
2018-11-22T20:04:29.464Z,97174.80
2018-11-22T20:06:57.756Z,97178.20
2018-11-22T20:09:26.089Z,97180.02
2018-11-22T20:11:54.389Z,97182.34
2018-11-22T20:14:22.725Z,97180.75
2018-11-22T20:16:51.017Z,97179.33
2018-11-22T20:19:19.332Z,97179.16
2018-11-22T20:21:47.853Z,97177.73
2018-11-22T20:24:16.149Z,97172.19
2018-11-22T20:26:44.444Z,97175.81
2018-11-22T20:29:12.772Z,97177.33
2018-11-22T20:31:42.058Z,97177.62
2018-11-22T20:34:10.377Z,97186.50
2018-11-22T20:36:38.656Z,97181.58
2018-11-22T20:39:10.401Z,97180.26
2018-11-22T20:41:38.900Z,97181.75
2018-11-22T20:44:07.492Z,97178.03
2018-11-22T20:46:35.797Z,97172.73
2018-11-22T20:49:04.195Z,97176.27
2018-11-22T20:51:32.512Z,97174.78
2018-11-22T20:54:00.948Z,97173.46
2018-11-22T20:56:29.273Z,97179.00
2018-11-22T20:58:57.593Z,97179.63
2018-11-22T21:01:25.944Z,97174.34
2018-11-22T21:03:54.432Z,97176.20
2018-11-22T21:06:22.841Z,97176.03
2018-11-22T21:08:51.149Z,97171.75
2018-11-22T21:11:19.479Z,97172.64
2018-11-22T21:13:47.816Z,97166.30
2018-11-22T21:16:16.150Z,97171.47
2018-11-22T21:18:44.493Z,97167.25
2018-11-22T21:21:12.816Z,97173.56
2018-11-22T21:23:41.144Z,97169.42
2018-11-22T21:26:14.437Z,97169.28
2018-11-22T21:28:37.849Z,97172.02
2018-11-22T21:31:06.208Z,97167.84
2018-11-22T21:33:34.767Z,97168.56
2018-11-22T21:36:02.894Z,97162.09
2018-11-22T21:38:31.212Z,97167.38
2018-11-22T21:40:59.564Z,97169.16
2018-11-22T21:43:27.869Z,97161.75
2018-11-22T21:45:56.200Z,97164.39
2018-11-22T21:48:24.500Z,97161.75
2018-11-22T21:50:52.820Z,97157.75
2018-11-22T21:53:21.128Z,97160.55
2018-11-22T21:55:49.456Z,97161.42
2018-11-22T21:58:17.776Z,97161.17
2018-11-22T22:00:46.112Z,97158.84
2018-11-22T22:03:14.409Z,97159.64
2018-11-22T22:05:42.841Z,97154.59
2018-11-22T22:08:11.189Z,97157.65
2018-11-22T22:10:39.547Z,97157.72
2018-11-22T22:13:07.917Z,97158.27
2018-11-22T22:15:37.088Z,97160.55
2018-11-22T22:18:06.487Z,97160.37
2018-11-22T22:20:35.713Z,97160.13
2018-11-22T22:23:04.072Z,97164.77
2018-11-22T22:25:32.536Z,97166.70
2018-11-22T22:28:01.285Z,97161.80
2018-11-22T22:30:31.885Z,97171.43
2018-11-22T22:33:01.806Z,97163.25
2018-11-22T22:35:30.161Z,97160.82
2018-11-22T22:37:58.464Z,97161.11
2018-11-22T22:40:27.956Z,97166.83
2018-11-22T22:42:57.049Z,97168.67
2018-11-22T22:45:26.441Z,97171.76
2018-11-22T22:47:54.872Z,97173.81
2018-11-22T22:50:24.322Z,97176.84
2018-11-22T22:52:53.905Z,97169.24
2018-11-22T22:55:22.249Z,97171.42
2018-11-22T22:57:50.634Z,97166.03
2018-11-22T23:00:25.050Z,97168.39
2018-11-22T23:02:54.744Z,97167.08
2018-11-22T23:05:23.753Z,97166.52
2018-11-22T23:07:52.712Z,97165.83
2018-11-22T23:10:21.496Z,97165.06
2018-11-22T23:12:49.808Z,97166.02
2018-11-22T23:15:18.886Z,97166.30
2018-11-22T23:17:47.651Z,97160.36
2018-11-22T23:20:18.535Z,97164.98
2018-11-22T23:22:47.269Z,97158.27
2018-11-22T23:25:16.173Z,97152.83
2018-11-22T23:27:44.505Z,97147.20
2018-11-22T23:30:17.413Z,97147.87
2018-11-22T23:32:46.884Z,97144.03
2018-11-22T23:35:15.325Z,97147.31
2018-11-22T23:37:43.950Z,97144.49
2018-11-22T23:40:14.571Z,97145.52
2018-11-22T23:42:43.169Z,97143.92
2018-11-22T23:45:12.676Z,97141.43
2018-11-22T23:47:41.416Z,97149.16
2018-11-22T23:50:11.993Z,97144.88
2018-11-22T23:52:40.720Z,97143.56
2018-11-22T23:55:09.469Z,97149.78
2018-11-22T23:57:37.892Z,97148.80
